Time;durP1;ratioP1;P1;durP2;ratioP2;P2;SDS_P1;SDS_P2;PMS_P1;PMS_P2;Temp;Humidity;BMP_temperature;BMP_pressure;BME280_temperature;BME280_humidity;BME280_pressure;Samples;Min_cycle;Max_cycle;Signal;HPM_P1;HPM_P2
2023/09/16 00:01:38;;;;;;;23.60;15.70;;;;;;;22.32;76.67;100151.41;109692;1250;68509;-55
2023/09/16 00:04:05;;;;;;;21.70;13.80;;;;;;;22.27;77.25;100150.77;109687;1250;71437;-55
2023/09/16 00:06:32;;;;;;;14.70;11.50;;;;;;;22.31;77.15;100150.03;109689;1250;60854;-54
2023/09/16 00:08:59;;;;;;;14.00;10.50;;;;;;;22.41;76.57;100153.88;109707;1251;59016;-54
2023/09/16 00:11:25;;;;;;;17.30;11.90;;;;;;;22.35;77.12;100157.40;109765;1250;74258;-54
2023/09/16 00:13:52;;;;;;;14.60;10.70;;;;;;;22.55;76.02;100158.12;109125;1253;67178;-55
2023/09/16 00:16:19;;;;;;;11.30;9.70;;;;;;;22.72;74.78;100161.50;109240;1253;72439;-55
2023/09/16 00:18:45;;;;;;;12.80;9.80;;;;;;;22.74;74.44;100160.57;109454;1253;61934;-55
2023/09/16 00:21:14;;;;;;;15.40;10.60;;;;;;;22.80;73.96;100161.16;109564;1251;60125;-55
2023/09/16 00:23:42;;;;;;;11.00;9.30;;;;;;;22.82;73.63;100165.24;109642;1250;74780;-55
2023/09/16 00:26:08;;;;;;;11.40;9.70;;;;;;;22.67;74.10;100163.91;109735;1250;67368;-55
2023/09/16 00:28:40;;;;;;;10.70;9.60;;;;;;;22.60;74.83;100161.61;109671;1250;72661;-54
2023/09/16 00:31:07;;;;;;;9.90;8.90;;;;;;;22.67;74.68;100163.69;109664;1250;60738;-56
2023/09/16 00:33:34;;;;;;;11.00;9.30;;;;;;;22.70;74.38;100162.27;109623;1251;60009;-55
2023/09/16 00:36:00;;;;;;;10.30;8.30;;;;;;;22.57;74.95;100162.41;109691;1251;73486;-55
2023/09/16 00:38:27;;;;;;;11.20;9.70;;;;;;;22.43;75.76;100161.61;109689;1250;69030;-55
2023/09/16 00:40:54;;;;;;;13.90;9.20;;;;;;;22.52;75.56;100168.04;109699;1250;72481;-55
2023/09/16 00:43:21;;;;;;;13.20;9.50;;;;;;;22.53;75.40;100168.86;109318;1251;61809;-55
2023/09/16 00:45:47;;;;;;;11.90;9.60;;;;;;;22.55;75.09;100173.73;109737;1250;60281;-55
2023/09/16 00:48:15;;;;;;;10.30;9.20;;;;;;;22.58;75.07;100177.09;109718;1250;74580;-55
2023/09/16 00:50:42;;;;;;;10.90;9.40;;;;;;;22.64;74.77;100177.19;109652;1251;68528;-55
2023/09/16 00:53:09;;;;;;;11.90;9.10;;;;;;;22.63;74.71;100177.36;109633;1250;72742;-55
2023/09/16 00:55:36;;;;;;;13.50;9.30;;;;;;;22.68;74.44;100182.03;109659;1250;61687;-55
2023/09/16 00:58:03;;;;;;;12.90;10.00;;;;;;;22.75;73.87;100180.74;109302;1251;60198;-54
2023/09/16 01:00:29;;;;;;;15.20;11.20;;;;;;;22.60;74.47;100180.69;109723;1250;74683;-55
2023/09/16 01:02:58;;;;;;;16.20;10.80;;;;;;;22.51;75.06;100179.58;109513;1250;67565;-55
2023/09/16 01:05:25;;;;;;;18.00;11.90;;;;;;;22.52;75.14;100180.63;109599;1252;73044;-54
2023/09/16 01:07:52;;;;;;;19.30;12.20;;;;;;;22.60;74.42;100183.36;109574;1251;60747;-55
2023/09/16 01:10:18;;;;;;;26.80;13.90;;;;;;;22.51;74.69;100181.01;109731;1250;60089;-55
2023/09/16 01:12:45;;;;;;;26.70;15.00;;;;;;;22.42;75.41;100183.90;109735;1250;73403;-55
2023/09/16 01:15:13;;;;;;;30.90;16.40;;;;;;;22.50;75.17;100184.14;109454;1254;67603;-55
2023/09/16 01:17:47;;;;;;;32.30;17.10;;;;;;;22.65;74.39;100188.14;109161;1254;71500;-55
2023/09/16 01:20:15;;;;;;;37.60;18.40;;;;;;;22.52;74.92;100186.56;109131;1254;60447;-55
2023/09/16 01:22:45;;;;;;;30.10;17.30;;;;;;;22.59;74.61;100193.18;109103;1254;60380;-55
2023/09/16 01:25:15;;;;;;;30.00;17.40;;;;;;;22.65;74.24;100197.13;109408;1254;74800;-55
2023/09/16 01:27:42;;;;;;;28.00;16.10;;;;;;;22.62;74.24;100200.71;109369;1254;67554;-55
2023/09/16 01:30:09;;;;;;;21.10;13.30;;;;;;;22.64;73.92;100200.98;109049;1254;71765;-55
2023/09/16 01:32:45;;;;;;;20.70;13.00;;;;;;;22.58;74.38;100200.39;109099;1254;62041;-54
2023/09/16 01:35:14;;;;;;;20.20;12.40;;;;;;;22.52;74.60;100198.77;109409;1254;59092;-55
2023/09/16 01:37:41;;;;;;;18.80;11.80;;;;;;;22.59;74.30;100201.30;109174;1254;74507;-55
2023/09/16 01:40:11;;;;;;;19.80;12.50;;;;;;;22.36;75.76;100198.16;109157;1254;68575;-55
2023/09/16 01:42:39;;;;;;;26.80;14.20;;;;;;;22.28;76.37;100201.30;109177;1254;72072;-55
2023/09/16 01:45:06;;;;;;;25.30;15.00;;;;;;;22.47;75.33;100202.67;109204;1254;61863;-55
2023/09/16 01:47:34;;;;;;;;;;;;;;;22.43;75.26;100200.51;109573;1253;60072;-55
2023/09/16 01:50:01;;;;;;;26.40;12.30;;;;;;;22.26;76.50;100202.17;109567;1251;74639;-55
2023/09/16 01:52:28;;;;;;;18.80;9.30;;;;;;;22.28;76.60;100202.73;109629;1251;67860;-55
2023/09/16 01:54:55;;;;;;;11.60;9.00;;;;;;;22.28;76.54;100200.75;109628;1250;71462;-54
2023/09/16 01:57:22;;;;;;;12.30;8.50;;;;;;;22.27;76.70;100203.07;109639;1251;61726;-55
2023/09/16 01:59:48;;;;;;;10.00;8.40;;;;;;;22.16;77.20;100198.98;109700;1251;59361;-55
2023/09/16 02:02:15;;;;;;;12.20;8.60;;;;;;;22.09;77.64;100201.80;109581;1251;74478;-55
2023/09/16 02:04:45;;;;;;;11.40;8.90;;;;;;;22.10;77.96;100199.92;109621;1251;67455;-55
2023/09/16 02:07:12;;;;;;;9.70;8.10;;;;;;;22.27;76.87;100206.31;109370;1254;71504;-55
2023/09/16 02:09:40;;;;;;;13.10;9.40;;;;;;;22.24;76.55;100202.83;109230;1255;62065;-55
2023/09/16 02:12:08;;;;;;;13.50;9.60;;;;;;;22.26;76.67;100205.96;109236;1253;60022;-55
2023/09/16 02:14:38;;;;;;;19.50;10.30;;;;;;;22.11;77.33;100205.73;109496;1253;74956;-55
2023/09/16 02:17:07;;;;;;;18.40;11.70;;;;;;;22.21;77.03;100207.77;109169;1254;68626;-55
2023/09/16 02:19:33;;;;;;;18.70;12.40;;;;;;;22.32;76.16;100208.30;109497;1253;70263;-55
2023/09/16 02:22:01;;;;;;;14.70;8.30;;;;;;;22.19;76.43;100207.32;109396;1254;62666;-55
2023/09/16 02:24:27;;;;;;;10.20;8.10;;;;;;;21.92;78.36;100210.60;109473;1253;59702;-55
2023/09/16 02:26:54;;;;;;;9.70;7.80;;;;;;;21.94;78.42;100209.84;109440;1254;73111;-55
2023/09/16 02:29:21;;;;;;;10.20;7.80;;;;;;;21.90;78.62;100212.84;109494;1254;68836;-54
2023/09/16 02:31:48;;;;;;;13.00;8.40;;;;;;;21.82;79.38;100217.70;109490;1253;71036;-55
2023/09/16 02:34:15;;;;;;;11.20;8.40;;;;;;;21.69;80.38;100217.43;109428;1254;61967;-55
2023/09/16 02:36:42;;;;;;;18.40;10.60;;;;;;;21.76;80.35;100214.45;109341;1254;60137;-54
2023/09/16 02:39:09;;;;;;;14.90;10.40;;;;;;;21.86;79.92;100221.05;109527;1250;73604;-55
2023/09/16 02:41:36;;;;;;;13.50;9.10;;;;;;;21.79;80.14;100225.21;109618;1251;67590;-55
2023/09/16 02:44:02;;;;;;;19.60;11.60;;;;;;;21.98;79.16;100227.19;109742;1250;72333;-55
2023/09/16 02:46:29;;;;;;;13.10;9.40;;;;;;;21.98;79.00;100230.79;109669;1251;60590;-55
2023/09/16 02:48:57;;;;;;;11.60;9.00;;;;;;;21.92;79.51;100235.38;109705;1251;60204;-55
2023/09/16 02:51:24;;;;;;;10.60;8.40;;;;;;;21.99;78.96;100233.56;109716;1251;73149;-55
2023/09/16 02:53:53;;;;;;;12.70;9.40;;;;;;;22.06;78.69;100233.86;109683;1250;67278;-55
2023/09/16 02:56:20;;;;;;;14.80;8.00;;;;;;;22.15;78.19;100233.67;109676;1250;72574;-56
2023/09/16 02:58:47;;;;;;;9.50;7.40;;;;;;;22.22;77.61;100237.61;109465;1251;61680;-55
2023/09/16 03:01:14;;;;;;;13.50;9.10;;;;;;;22.28;77.31;100236.69;109472;1253;60111;-55
2023/09/16 03:03:43;;;;;;;13.60;10.30;;;;;;;22.27;77.40;100239.18;109423;1254;73701;-55
2023/09/16 03:06:10;;;;;;;17.20;11.70;;;;;;;22.10;78.31;100236.94;109458;1254;68544;-55
2023/09/16 03:08:36;;;;;;;18.00;12.90;;;;;;;21.98;79.26;100237.06;109498;1254;70234;-55
2023/09/16 03:11:04;;;;;;;21.00;11.10;;;;;;;21.59;81.61;100235.27;109485;1254;62194;-55
2023/09/16 03:13:31;;;;;;;18.50;12.50;;;;;;;21.37;83.97;100235.73;109523;1253;60100;-55
2023/09/16 03:16:20;;;;;;;15.80;9.80;;;;;;;21.55;83.14;100233.94;109338;1256;74896;-54
2023/09/16 03:18:50;;;;;;;27.20;15.70;;;;;;;21.62;82.90;100237.38;109349;1254;68608;-54
2023/09/16 03:21:18;;;;;;;19.00;12.20;;;;;;;21.68;82.90;100239.58;109209;1254;73093;-55
2023/09/16 03:23:45;;;;;;;21.90;12.70;;;;;;;21.86;81.85;100240.79;109356;1253;61710;-55
2023/09/16 03:26:12;;;;;;;23.40;13.90;;;;;;;21.86;81.68;100242.52;109217;1253;60013;-55
2023/09/16 03:28:47;;;;;;;26.30;14.50;;;;;;;21.95;81.13;100245.58;109404;1254;74876;-55
2023/09/16 03:31:15;;;;;;;26.70;15.40;;;;;;;22.03;80.44;100248.09;109448;1254;68567;-55
2023/09/16 03:33:42;;;;;;;25.90;14.60;;;;;;;21.76;81.98;100242.77;109679;1251;72432;-55
2023/09/16 03:36:09;;;;;;;27.90;15.90;;;;;;;21.54;83.93;100243.52;109474;1251;59736;-55
2023/09/16 03:38:45;;;;;;;25.20;15.90;;;;;;;21.59;84.10;100243.02;109599;1251;60148;-55
2023/09/16 03:41:11;;;;;;;29.80;15.70;;;;;;;21.76;82.89;100246.80;109610;1251;74530;-55
2023/09/16 03:43:38;;;;;;;30.60;17.10;;;;;;;21.96;81.70;100248.81;109550;1253;68725;-55
2023/09/16 03:46:05;;;;;;;26.60;15.90;;;;;;;22.11;80.64;100252.65;109276;1251;72142;-54
2023/09/16 03:48:32;;;;;;;25.90;14.70;;;;;;;22.14;80.23;100252.91;109334;1254;61769;-55
2023/09/16 03:50:59;;;;;;;27.00;16.40;;;;;;;21.77;82.53;100255.65;109678;1250;60036;-55
2023/09/16 03:53:26;;;;;;;28.80;17.40;;;;;;;21.88;82.32;100253.50;109450;1251;73124;-55
2023/09/16 03:56:08;;;;;;;34.30;18.30;;;;;;;22.07;81.01;100258.21;109629;1251;68713;-55
2023/09/16 03:58:36;;;;;;;30.00;16.00;;;;;;;21.98;81.49;100256.16;109580;1251;72371;-55
2023/09/16 04:01:02;;;;;;;31.60;16.90;;;;;;;21.94;82.05;100257.39;109583;1250;61151;-55
2023/09/16 04:03:30;;;;;;;37.00;17.10;;;;;;;22.09;81.51;100262.20;109634;1251;60192;-54
2023/09/16 04:05:58;;;;;;;37.70;19.30;;;;;;;22.21;80.99;100265.09;109717;1250;74528;-55
2023/09/16 04:08:26;;;;;;;41.70;19.30;;;;;;;22.22;80.85;100268.89;109656;1250;67923;-55
2023/09/16 04:10:59;;;;;;;40.40;19.60;;;;;;;22.13;81.10;100271.67;109545;1251;72361;-55
2023/09/16 04:13:26;;;;;;;26.50;14.80;;;;;;;22.07;81.34;100266.98;109564;1252;60239;-55
2023/09/16 04:15:54;;;;;;;28.00;15.10;;;;;;;22.04;81.66;100269.20;109616;1252;58994;-55
2023/09/16 04:18:21;;;;;;;26.10;13.80;;;;;;;21.94;82.20;100273.91;109677;1251;74542;-55
2023/09/16 04:20:48;;;;;;;27.20;14.00;;;;;;;21.98;81.81;100274.98;109589;1252;68537;-54
2023/09/16 04:23:15;;;;;;;18.70;11.30;;;;;;;21.94;82.14;100276.27;109210;1250;72008;-55
2023/09/16 04:25:42;;;;;;;18.50;9.40;;;;;;;21.79;82.85;100274.73;109646;1251;61753;-54
2023/09/16 04:28:09;;;;;;;12.20;8.60;;;;;;;21.73;82.99;100273.95;109609;1251;60695;-54
2023/09/16 04:30:46;;;;;;;15.40;8.70;;;;;;;21.98;81.79;100278.19;109510;1251;109763;-54
2023/09/16 04:33:13;;;;;;;15.90;9.60;;;;;;;21.94;81.96;100276.91;109654;1250;67427;-54
2023/09/16 04:35:45;;;;;;;13.60;8.90;;;;;;;22.01;81.85;100282.48;109166;1251;72438;-54
2023/09/16 04:38:12;;;;;;;16.40;9.10;;;;;;;22.06;81.29;100284.27;109757;1251;61934;-54
2023/09/16 04:40:43;;;;;;;15.90;9.30;;;;;;;22.02;81.68;100286.45;109599;1250;60129;-54
2023/09/16 04:43:13;;;;;;;16.20;9.20;;;;;;;22.10;81.40;100289.09;109627;1251;74574;-54
2023/09/16 04:45:44;;;;;;;19.50;12.10;;;;;;;22.00;81.93;100292.13;109622;1251;68555;-55
2023/09/16 04:48:13;;;;;;;20.50;11.80;;;;;;;21.92;82.81;100291.46;109636;1250;71625;-56
2023/09/16 04:50:42;;;;;;;17.90;10.70;;;;;;;21.85;83.45;100291.13;109601;1250;61884;-55
2023/09/16 04:53:09;;;;;;;22.90;11.20;;;;;;;21.83;83.72;100294.13;109161;1251;59194;-55
2023/09/16 04:55:37;;;;;;;18.40;11.30;;;;;;;21.95;83.30;100296.63;109267;1250;73738;-55
2023/09/16 04:58:04;;;;;;;18.60;11.10;;;;;;;21.93;83.20;100297.06;109354;1254;67321;-56
2023/09/16 05:00:33;;;;;;;20.80;11.50;;;;;;;21.90;83.49;100297.95;109393;1254;72840;-55
2023/09/16 05:03:01;;;;;;;19.70;12.20;;;;;;;22.04;83.06;100300.84;109207;1255;61739;-56
2023/09/16 05:05:29;;;;;;;20.50;13.70;;;;;;;22.01;82.90;100299.14;109221;1255;60300;-56
2023/09/16 05:07:56;;;;;;;16.10;12.00;;;;;;;22.10;82.38;100306.62;109273;1254;74579;-54
2023/09/16 05:10:23;;;;;;;22.80;12.80;;;;;;;22.20;81.83;100308.31;109380;1254;67176;-55
2023/09/16 05:12:49;;;;;;;16.60;11.70;;;;;;;22.34;81.35;100309.16;109361;1254;72526;-55
2023/09/16 05:15:18;;;;;;;19.20;12.50;;;;;;;22.30;81.32;100312.33;109123;1254;60382;-54
2023/09/16 05:17:44;;;;;;;17.00;9.40;;;;;;;22.24;81.36;100313.40;109412;1254;58986;-56
2023/09/16 05:20:11;;;;;;;15.90;11.50;;;;;;;22.18;81.55;100313.34;109230;1256;73218;-56
2023/09/16 05:22:39;;;;;;;15.00;10.40;;;;;;;22.19;81.89;100312.91;109046;1255;67941;-56
2023/09/16 05:25:06;;;;;;;17.00;11.20;;;;;;;22.18;81.79;100311.52;109160;1256;71473;-55
2023/09/16 05:27:34;;;;;;;16.70;11.50;;;;;;;22.15;81.86;100312.79;109015;1256;61965;-56
2023/09/16 05:30:01;;;;;;;17.70;10.70;;;;;;;22.27;81.51;100317.88;109330;1253;60024;-55
2023/09/16 05:32:31;;;;;;;15.90;11.40;;;;;;;22.06;82.23;100316.73;109550;1254;74732;-54
2023/09/16 05:34:57;;;;;;;19.70;11.90;;;;;;;22.12;82.26;100320.69;109548;1253;68975;-56
2023/09/16 05:37:25;;;;;;;13.90;10.60;;;;;;;22.25;81.06;100321.20;109490;1253;71517;-55
2023/09/16 05:39:51;;;;;;;18.60;11.40;;;;;;;22.19;81.52;100320.46;109523;1253;59431;-56
2023/09/16 05:42:18;;;;;;;18.40;13.00;;;;;;;22.16;81.42;100323.10;109519;1253;60337;-56
2023/09/16 05:44:45;;;;;;;18.70;12.80;;;;;;;21.96;83.02;100325.64;109579;1252;73630;-55
2023/09/16 05:47:13;;;;;;;19.10;14.40;;;;;;;21.98;83.19;100322.95;109561;1253;68724;-55
2023/09/16 05:49:40;;;;;;;23.90;15.10;;;;;;;22.19;82.38;100326.37;109358;1254;72076;-54
2023/09/16 05:52:06;;;;;;;19.90;15.20;;;;;;;22.22;81.46;100323.56;109234;1254;61665;-54
2023/09/16 05:54:33;;;;;;;20.30;15.10;;;;;;;22.11;82.49;100324.54;109223;1256;59083;-54
2023/09/16 05:57:01;;;;;;;22.30;13.80;;;;;;;22.29;81.57;100325.70;109198;1256;74738;-55
2023/09/16 05:59:29;;;;;;;19.50;13.00;;;;;;;22.28;81.08;100330.04;109218;1257;67511;-55
2023/09/16 06:01:56;;;;;;;14.80;11.60;;;;;;;22.16;81.54;100327.10;109208;1256;72349;-55
2023/09/16 06:04:23;;;;;;;16.10;10.20;;;;;;;22.09;81.62;100328.41;108977;1257;61778;-55
2023/09/16 06:06:50;;;;;;;14.00;9.50;;;;;;;21.95;82.56;100332.33;109013;1257;59038;-54
2023/09/16 06:09:17;;;;;;;12.30;9.60;;;;;;;21.95;82.78;100337.88;109085;1256;74555;-55
2023/09/16 06:11:44;;;;;;;16.70;10.10;;;;;;;22.06;82.24;100333.59;109112;1257;68196;-54
2023/09/16 06:14:11;;;;;;;12.80;9.60;;;;;;;22.18;81.47;100340.23;109192;1257;71192;-55
2023/09/16 06:16:38;;;;;;;12.90;9.70;;;;;;;22.18;80.90;100343.25;109074;1256;61736;-54
2023/09/16 06:19:04;;;;;;;10.40;7.60;;;;;;;22.02;82.09;100345.16;109197;1257;59050;-55
2023/09/16 06:21:31;;;;;;;12.70;8.50;;;;;;;22.13;81.29;100344.63;109225;1254;74697;-55
2023/09/16 06:23:59;;;;;;;14.20;8.50;;;;;;;22.21;81.31;100345.38;109395;1254;68580;-55
2023/09/16 06:26:26;;;;;;;18.20;11.20;;;;;;;22.14;81.73;100350.33;109085;1254;71398;-55
2023/09/16 06:28:53;;;;;;;26.40;11.60;;;;;;;22.31;81.24;100351.58;109516;1253;60780;-55
2023/09/16 06:31:19;;;;;;;23.00;11.20;;;;;;;22.35;80.37;100359.56;109563;1255;59022;-56
2023/09/16 06:33:49;;;;;;;20.30;9.70;;;;;;;22.36;80.33;100360.74;109633;1251;73492;-54
2023/09/16 06:36:15;;;;;;;17.30;10.50;;;;;;;22.30;80.38;100360.19;109600;1256;67181;-54
2023/09/16 06:38:42;;;;;;;16.00;10.50;;;;;;;22.18;81.29;100361.61;109496;1253;72475;-54
2023/09/16 06:41:09;;;;;;;21.90;9.60;;;;;;;22.08;82.29;100362.02;109171;1254;62042;-55
2023/09/16 06:43:36;;;;;;;12.80;9.10;;;;;;;22.03;82.98;100365.36;109627;1253;60146;-55
2023/09/16 06:46:03;;;;;;;14.80;9.00;;;;;;;21.81;84.53;100367.25;109547;1253;74626;-54
2023/09/16 06:48:30;;;;;;;16.70;9.80;;;;;;;21.72;85.49;100363.41;109604;1253;68783;-54
2023/09/16 06:50:56;;;;;;;18.30;10.50;;;;;;;21.77;85.95;100366.04;109580;1253;72490;-54
2023/09/16 06:53:23;;;;;;;18.30;10.50;;;;;;;21.89;85.57;100365.88;109564;1252;61658;-54
2023/09/16 06:55:50;;;;;;;19.60;11.40;;;;;;;21.83;86.06;100364.31;109588;1251;59028;-54
2023/09/16 06:58:20;;;;;;;14.70;10.40;;;;;;;21.90;86.35;100368.13;109585;1253;74691;-55
2023/09/16 07:00:50;;;;;;;16.80;10.60;;;;;;;21.84;86.86;100364.51;109606;1252;68788;-55
2023/09/16 07:03:18;;;;;;;16.40;9.80;;;;;;;21.83;87.05;100369.17;109293;1253;72950;-54
2023/09/16 07:05:46;;;;;;;14.70;9.40;;;;;;;21.85;87.26;100369.17;109555;1252;60986;-55
2023/09/16 07:08:14;;;;;;;11.40;8.60;;;;;;;21.86;87.30;100374.19;109566;1253;59001;-54
2023/09/16 07:10:41;;;;;;;18.30;9.70;;;;;;;21.94;87.17;100374.14;109434;1253;72491;-53
2023/09/16 07:13:07;;;;;;;11.00;8.00;;;;;;;21.94;87.32;100376.77;109550;1255;68987;-53
2023/09/16 07:15:35;;;;;;;12.20;9.00;;;;;;;21.94;87.02;100373.95;109566;1254;72570;-53
2023/09/16 07:18:02;;;;;;;11.60;9.30;;;;;;;21.85;87.47;100378.70;109513;1251;61714;-53
2023/09/16 07:20:29;;;;;;;13.70;9.70;;;;;;;21.91;87.71;100377.50;109380;1251;60277;-53
2023/09/16 07:22:56;;;;;;;15.10;10.40;;;;;;;22.01;87.69;100381.44;109692;1251;74477;-55
2023/09/16 07:25:22;;;;;;;13.10;9.90;;;;;;;22.04;87.79;100385.41;109763;1251;68560;-56
2023/09/16 07:27:49;;;;;;;15.90;10.20;;;;;;;22.17;87.22;100388.98;109750;1250;72671;-55
2023/09/16 07:30:17;;;;;;;12.90;10.60;;;;;;;22.25;86.35;100393.83;109718;1250;61677;-53
2023/09/16 07:32:44;;;;;;;17.10;11.30;;;;;;;22.13;86.48;100394.93;109755;1251;60303;-54
2023/09/16 07:35:11;;;;;;;11.90;10.10;;;;;;;22.10;87.05;100401.88;109453;1251;73253;-55
2023/09/16 07:37:37;;;;;;;14.00;10.60;;;;;;;22.16;86.76;100404.31;109781;1250;67128;-55
2023/09/16 07:40:05;;;;;;;12.10;9.40;;;;;;;22.32;86.30;100408.93;109712;1251;71307;-55
2023/09/16 07:42:35;;;;;;;12.40;9.60;;;;;;;22.28;86.40;100412.50;109718;1254;61666;-54
2023/09/16 07:45:05;;;;;;;10.40;9.20;;;;;;;22.27;85.83;100414.77;109732;1256;60034;-55
2023/09/16 07:47:32;;;;;;;12.40;10.20;;;;;;;22.25;86.13;100415.86;109737;1251;74735;-54
2023/09/16 07:49:59;;;;;;;18.60;12.30;;;;;;;22.44;85.76;100419.62;109735;1251;68748;-56
2023/09/16 07:52:26;;;;;;;17.10;11.50;;;;;;;22.57;84.93;100418.52;109298;1251;71095;-55
2023/09/16 07:54:55;;;;;;;16.10;10.20;;;;;;;22.63;84.64;100421.63;109757;1251;61756;-55
2023/09/16 07:57:22;;;;;;;16.30;9.50;;;;;;;22.70;83.98;100423.15;109748;1251;60080;-55
2023/09/16 07:59:49;;;;;;;12.60;9.00;;;;;;;22.74;82.89;100420.20;109687;1251;73211;-55
2023/09/16 08:02:16;;;;;;;14.00;8.20;;;;;;;22.78;82.74;100428.44;109729;1251;68506;-55
2023/09/16 08:04:42;;;;;;;15.50;9.70;;;;;;;22.83;81.44;100425.43;109652;1251;71134;-55
2023/09/16 08:07:10;;;;;;;24.90;13.20;;;;;;;22.81;82.41;100428.55;109690;1251;62271;-55
2023/09/16 08:09:37;;;;;;;14.00;9.60;;;;;;;22.78;82.08;100426.40;109713;1251;60182;-55
2023/09/16 08:12:04;;;;;;;11.60;9.20;;;;;;;22.61;83.50;100428.70;109434;1254;74487;-55
2023/09/16 08:14:31;;;;;;;10.60;8.10;;;;;;;22.69;82.27;100430.90;109564;1253;69438;-55
2023/09/16 08:17:02;;;;;;;13.00;8.80;;;;;;;22.71;81.90;100430.05;109512;1254;71505;-55
2023/09/16 08:19:30;;;;;;;11.50;9.00;;;;;;;22.77;82.23;100432.94;109535;1253;60548;-55
2023/09/16 08:21:57;;;;;;;17.80;10.30;;;;;;;22.85;81.68;100435.84;109561;1252;58869;-56
2023/09/16 08:24:24;;;;;;;18.40;10.70;;;;;;;22.87;81.25;100432.83;109694;1251;74832;-54
2023/09/16 08:26:50;;;;;;;10.60;9.20;;;;;;;22.85;82.14;100433.49;109718;1251;68503;-55
2023/09/16 08:29:17;;;;;;;16.70;8.60;;;;;;;22.88;80.61;100438.82;109732;1251;72511;-55
2023/09/16 08:31:44;;;;;;;13.60;10.00;;;;;;;22.74;81.32;100435.69;109452;1251;61890;-55
2023/09/16 08:34:11;;;;;;;14.10;9.80;;;;;;;22.79;81.47;100434.19;109716;1251;58931;-55
2023/09/16 08:36:37;;;;;;;15.60;10.30;;;;;;;22.92;81.27;100436.81;109662;1250;73223;-54
2023/09/16 08:39:04;;;;;;;11.90;8.80;;;;;;;22.95;80.58;100437.73;109620;1251;68581;-55
2023/09/16 08:41:46;;;;;;;13.20;9.80;;;;;;;23.15;78.90;100435.48;109692;1251;72509;-55
2023/09/16 08:44:13;;;;;;;14.90;12.10;;;;;;;23.22;78.32;100438.41;109725;1251;60393;-55
2023/09/16 08:46:46;;;;;;;13.80;10.60;;;;;;;23.56;77.08;100438.38;109626;1251;60148;-55
2023/09/16 08:49:13;;;;;;;14.20;10.50;;;;;;;24.01;74.69;100443.77;109685;1251;73364;-55
2023/09/16 08:51:42;;;;;;;13.50;9.80;;;;;;;24.26;72.72;100443.21;109517;1251;68537;-55
2023/09/16 08:54:09;;;;;;;;;;;;;;;24.42;70.59;100444.56;109772;1251;72471;-55
2023/09/16 08:56:36;;;;;;;9.40;8.10;;;;;;;24.58;67.86;100441.73;109717;1250;60533;-55
2023/09/16 08:59:02;;;;;;;12.10;8.70;;;;;;;24.68;68.01;100437.86;109624;1251;60106;-55
2023/09/16 09:01:29;;;;;;;14.00;8.80;;;;;;;24.83;65.87;100441.17;109590;1251;74660;-55
2023/09/16 09:03:56;;;;;;;13.10;8.10;;;;;;;24.86;65.01;100437.51;109172;1250;67358;-54
2023/09/16 09:06:22;;;;;;;9.20;8.30;;;;;;;24.97;64.44;100437.92;109706;1251;71729;-55
2023/09/16 09:09:05;;;;;;;10.00;8.20;;;;;;;25.04;62.87;100439.46;109734;1251;60577;-55
2023/09/16 09:11:32;;;;;;;15.00;9.10;;;;;;;25.10;62.56;100440.42;109763;1251;59989;-56
2023/09/16 09:13:59;;;;;;;13.10;8.80;;;;;;;25.14;62.11;100440.17;109578;1253;74444;-56
2023/09/16 09:16:26;;;;;;;12.30;8.10;;;;;;;25.20;61.79;100444.59;109379;1253;69407;-55
2023/09/16 09:18:56;;;;;;;9.60;8.70;;;;;;;25.19;60.65;100446.70;109526;1253;72406;-55
2023/09/16 09:21:22;;;;;;;10.50;9.10;;;;;;;25.25;60.69;100445.13;109589;1251;61807;-55
2023/09/16 09:23:49;;;;;;;10.40;8.90;;;;;;;25.33;59.52;100452.58;109455;1253;59006;-55
2023/09/16 09:26:16;;;;;;;10.20;9.20;;;;;;;25.28;58.94;100453.09;109513;1254;74720;-56
2023/09/16 09:28:49;;;;;;;11.30;9.70;;;;;;;25.28;59.13;100453.65;109481;1254;67878;-55
2023/09/16 09:31:16;;;;;;;15.10;11.30;;;;;;;25.40;58.22;100454.61;109516;1253;71640;-55
2023/09/16 09:33:44;;;;;;;11.00;9.60;;;;;;;25.40;57.95;100453.97;109510;1254;60545;-57
2023/09/16 09:36:12;;;;;;;13.40;10.80;;;;;;;25.35;58.33;100451.48;109553;1253;60207;-56
2023/09/16 09:38:43;;;;;;;14.00;11.50;;;;;;;25.45;58.40;100455.33;109433;1253;74662;-56
2023/09/16 09:41:10;;;;;;;12.90;10.90;;;;;;;25.65;57.45;100456.44;109464;1254;67341;-56
2023/09/16 09:43:37;;;;;;;13.20;11.80;;;;;;;25.73;56.01;100458.48;109476;1253;72816;-56
2023/09/16 09:46:03;;;;;;;13.80;11.20;;;;;;;25.80;55.44;100453.79;109340;1254;61853;-56
2023/09/16 09:48:31;;;;;;;14.50;13.00;;;;;;;25.97;54.16;100448.80;109524;1253;59053;-56
2023/09/16 09:50:58;;;;;;;14.50;12.60;;;;;;;25.99;53.82;100451.86;109501;1252;73278;-56
2023/09/16 09:53:26;;;;;;;12.80;11.20;;;;;;;26.09;53.96;100449.77;109552;1253;67605;-56
2023/09/16 09:55:53;;;;;;;;;;;;;;;26.25;53.56;100450.12;109489;1253;71550;-56
2023/09/16 09:58:19;;;;;;;16.10;13.60;;;;;;;26.45;52.06;100447.08;109494;1253;61672;-56
2023/09/16 10:00:50;;;;;;;18.90;14.30;;;;;;;26.47;51.57;100446.77;109499;1253;60111;-56
2023/09/16 10:03:17;;;;;;;15.40;13.70;;;;;;;26.30;52.04;100449.91;109534;1254;74486;-54
2023/09/16 10:05:44;;;;;;;17.00;14.70;;;;;;;26.35;51.29;100447.02;109486;1254;68563;-54
2023/09/16 10:08:11;;;;;;;16.30;14.30;;;;;;;26.34;51.34;100448.02;109362;1254;72683;-54
2023/09/16 10:10:38;;;;;;;14.30;12.80;;;;;;;26.53;50.75;100448.09;109475;1253;61945;-54
2023/09/16 10:13:04;;;;;;;16.00;13.10;;;;;;;26.36;49.51;100447.88;109548;1252;59616;-54
2023/09/16 10:15:37;;;;;;;15.80;14.10;;;;;;;26.41;49.93;100449.77;109598;1253;74509;-54
2023/09/16 10:18:05;;;;;;;15.20;13.60;;;;;;;26.49;49.85;100448.23;109548;1251;68716;-54
2023/09/16 10:20:41;;;;;;;16.90;15.10;;;;;;;26.53;49.86;100454.62;109460;1251;72473;-55
2023/09/16 10:23:07;;;;;;;16.90;14.50;;;;;;;26.60;49.94;100455.73;109545;1251;60743;-54
2023/09/16 10:25:34;;;;;;;19.00;14.70;;;;;;;26.39;49.95;100454.35;109267;1255;59263;-54
2023/09/16 10:28:07;;;;;;;17.90;15.20;;;;;;;26.33;50.72;100452.15;109266;1257;74557;-54
2023/09/16 10:30:34;;;;;;;16.20;14.30;;;;;;;26.36;50.52;100450.37;109242;1256;67880;-54
2023/09/16 10:33:10;;;;;;;18.50;15.60;;;;;;;26.39;49.93;100452.55;109276;1257;72742;-54
2023/09/16 10:35:39;;;;;;;18.70;15.00;;;;;;;26.33;50.33;100448.61;109010;1256;61768;-54
2023/09/16 10:38:07;;;;;;;16.10;14.20;;;;;;;26.22;50.74;100445.71;109224;1257;58962;-55
2023/09/16 10:40:34;;;;;;;18.00;15.50;;;;;;;26.14;50.96;100444.06;109251;1256;74454;-54
2023/09/16 10:43:01;;;;;;;18.00;14.10;;;;;;;26.36;50.50;100445.13;109229;1257;68520;-54
2023/09/16 10:45:31;;;;;;;16.60;13.60;;;;;;;26.24;50.35;100443.74;109242;1257;72654;-54
2023/09/16 10:48:01;;;;;;;17.20;14.70;;;;;;;26.20;50.61;100440.84;109231;1257;62021;-54
2023/09/16 10:50:30;;;;;;;20.90;17.20;;;;;;;26.22;50.37;100441.95;109053;1256;59069;-54
2023/09/16 10:53:05;;;;;;;17.00;15.20;;;;;;;26.18;50.57;100438.98;109293;1256;73168;-55
2023/09/16 10:55:40;;;;;;;17.10;13.70;;;;;;;26.36;50.12;100433.93;109281;1256;68774;-55
2023/09/16 10:58:16;;;;;;;13.00;11.10;;;;;;;26.37;49.47;100433.36;109599;1251;72610;-55
2023/09/16 11:00:54;;;;;;;13.20;11.40;;;;;;;26.45;49.23;100434.06;109666;1250;60418;-55
2023/09/16 11:03:30;;;;;;;11.30;10.10;;;;;;;26.54;49.15;100433.73;109321;1250;60167;-55
2023/09/16 11:05:58;;;;;;;11.40;10.30;;;;;;;26.91;47.90;100433.64;109455;1251;74381;-55
2023/09/16 11:08:25;;;;;;;15.50;12.50;;;;;;;26.85;47.62;100433.52;109760;1250;68601;-56